Milverton, Canada
Current Conditions -  °F | °C
As of 1:00 PM on Sunday 21 Dec 2014 (Local Time) from CYKF Reporting Station
Overcast Overcast  
Wind Chill: 25°   Ceiling: 2300
Heat Index: 30°   Visibility: 9mi
Dew Point: 21°   Wind: 5mph
Humidity: 69%   Direction: 270°W
Pressure: 30.26"   Gusts: NA
Location:  43.57°N, 80.93°W
Report Text: CYKF 211800Z AUTO 27004KT 210V290 9SM OVC023 M01/M06 A3026 RMK SLP263
Loading
Personal Weather Stations






























Interactive Weather Map New forecast layout! Learn more

10-Day Weather Forecast

Advertisements
Track Severe Weather on mobile